sensor_id;sensor_type;location;lat;lon;timestamp;P1;durP1;ratioP1;P2;durP2;ratioP2
25301;SDS011;13243;50.888;4.724;2023-03-01T00:02:51;20.85;;;11.15;;
25301;SDS011;13243;50.888;4.724;2023-03-01T00:07:53;24.23;;;12.30;;
25301;SDS011;13243;50.888;4.724;2023-03-01T00:12:55;19.27;;;10.77;;
25301;SDS011;13243;50.888;4.724;2023-03-01T00:17:57;22.75;;;11.48;;
25301;SDS011;13243;50.888;4.724;2023-03-01T00:22:59;23.38;;;11.57;;
25301;SDS011;13243;50.888;4.724;2023-03-01T00:28:01;23.13;;;11.52;;
25301;SDS011;13243;50.888;4.724;2023-03-01T00:33:03;27.60;;;11.60;;
25301;SDS011;13243;50.888;4.724;2023-03-01T00:38:05;21.60;;;11.40;;
25301;SDS011;13243;50.888;4.724;2023-03-01T00:43:07;25.67;;;11.73;;
25301;SDS011;13243;50.888;4.724;2023-03-01T00:48:09;22.38;;;12.18;;
25301;SDS011;13243;50.888;4.724;2023-03-01T00:53:11;24.67;;;13.00;;
25301;SDS011;13243;50.888;4.724;2023-03-01T00:58:13;17.80;;;11.13;;
25301;SDS011;13243;50.888;4.724;2023-03-01T01:03:15;24.67;;;11.27;;
25301;SDS011;13243;50.888;4.724;2023-03-01T01:08:17;18.60;;;10.90;;
25301;SDS011;13243;50.888;4.724;2023-03-01T01:13:20;21.20;;;11.27;;
25301;SDS011;13243;50.888;4.724;2023-03-01T01:18:22;26.33;;;12.10;;
25301;SDS011;13243;50.888;4.724;2023-03-01T01:23:24;24.70;;;11.57;;
25301;SDS011;13243;50.888;4.724;2023-03-01T01:28:26;19.50;;;11.27;;
25301;SDS011;13243;50.888;4.724;2023-03-01T01:33:28;23.10;;;11.35;;
25301;SDS011;13243;50.888;4.724;2023-03-01T01:38:30;24.90;;;11.45;;
25301;SDS011;13243;50.888;4.724;2023-03-01T01:43:36;18.67;;;11.07;;
25301;SDS011;13243;50.888;4.724;2023-03-01T01:48:45;18.17;;;8.47;;
25301;SDS011;13243;50.888;4.724;2023-03-01T01:53:51;22.08;;;11.25;;
25301;SDS011;13243;50.888;4.724;2023-03-01T01:58:57;22.05;;;11.35;;
25301;SDS011;13243;50.888;4.724;2023-03-01T02:03:59;18.52;;;10.45;;
25301;SDS011;13243;50.888;4.724;2023-03-01T02:09:03;21.75;;;10.40;;
25301;SDS011;13243;50.888;4.724;2023-03-01T02:14:08;21.75;;;10.70;;
25301;SDS011;13243;50.888;4.724;2023-03-01T02:19:13;21.52;;;10.25;;
25301;SDS011;13243;50.888;4.724;2023-03-01T02:24:40;17.85;;;9.35;;
25301;SDS011;13243;50.888;4.724;2023-03-01T02:30:03;15.00;;;9.70;;
25301;SDS011;13243;50.888;4.724;2023-03-01T02:35:05;22.05;;;10.10;;
25301;SDS011;13243;50.888;4.724;2023-03-01T02:40:09;18.90;;;9.73;;
25301;SDS011;13243;50.888;4.724;2023-03-01T02:45:14;16.60;;;9.43;;
25301;SDS011;13243;50.888;4.724;2023-03-01T02:55:30;22.23;;;9.25;;
25301;SDS011;13243;50.888;4.724;2023-03-01T03:00:35;15.63;;;9.45;;
25301;SDS011;13243;50.888;4.724;2023-03-01T03:05:41;23.17;;;10.75;;
25301;SDS011;13243;50.888;4.724;2023-03-01T03:10:43;17.45;;;9.85;;
25301;SDS011;13243;50.888;4.724;2023-03-01T03:15:45;22.05;;;11.13;;
25301;SDS011;13243;50.888;4.724;2023-03-01T03:20:47;23.50;;;10.70;;
25301;SDS011;13243;50.888;4.724;2023-03-01T03:25:49;18.75;;;10.82;;
25301;SDS011;13243;50.888;4.724;2023-03-01T03:30:51;23.00;;;10.70;;
25301;SDS011;13243;50.888;4.724;2023-03-01T03:35:53;20.40;;;10.27;;
25301;SDS011;13243;50.888;4.724;2023-03-01T03:41:00;22.23;;;9.95;;
25301;SDS011;13243;50.888;4.724;2023-03-01T03:46:06;21.30;;;10.57;;
25301;SDS011;13243;50.888;4.724;2023-03-01T03:51:13;18.23;;;9.43;;
25301;SDS011;13243;50.888;4.724;2023-03-01T03:56:16;23.17;;;9.98;;
25301;SDS011;13243;50.888;4.724;2023-03-01T04:01:18;37.38;;;11.02;;
25301;SDS011;13243;50.888;4.724;2023-03-01T04:06:20;17.23;;;8.90;;
25301;SDS011;13243;50.888;4.724;2023-03-01T04:11:22;15.95;;;9.30;;
25301;SDS011;13243;50.888;4.724;2023-03-01T04:16:29;18.83;;;9.15;;
25301;SDS011;13243;50.888;4.724;2023-03-01T04:21:31;22.98;;;9.63;;
25301;SDS011;13243;50.888;4.724;2023-03-01T04:26:33;22.42;;;9.93;;
25301;SDS011;13243;50.888;4.724;2023-03-01T04:31:35;18.23;;;8.63;;
25301;SDS011;13243;50.888;4.724;2023-03-01T04:36:37;16.60;;;9.45;;
25301;SDS011;13243;50.888;4.724;2023-03-01T04:41:41;20.27;;;10.02;;
25301;SDS011;13243;50.888;4.724;2023-03-01T04:46:44;17.33;;;9.52;;
25301;SDS011;13243;50.888;4.724;2023-03-01T04:51:46;20.83;;;9.45;;
25301;SDS011;13243;50.888;4.724;2023-03-01T04:56:47;24.98;;;9.63;;
25301;SDS011;13243;50.888;4.724;2023-03-01T05:01:50;18.67;;;9.05;;
25301;SDS011;13243;50.888;4.724;2023-03-01T05:06:52;17.27;;;8.70;;
25301;SDS011;13243;50.888;4.724;2023-03-01T05:11:54;14.38;;;8.30;;
25301;SDS011;13243;50.888;4.724;2023-03-01T05:16:56;17.02;;;9.35;;
25301;SDS011;13243;50.888;4.724;2023-03-01T05:22:05;16.33;;;8.10;;
25301;SDS011;13243;50.888;4.724;2023-03-01T05:27:07;19.70;;;8.98;;
25301;SDS011;13243;50.888;4.724;2023-03-01T05:32:09;16.73;;;9.02;;
25301;SDS011;13243;50.888;4.724;2023-03-01T05:37:15;17.83;;;9.57;;
25301;SDS011;13243;50.888;4.724;2023-03-01T05:42:17;14.63;;;8.20;;
25301;SDS011;13243;50.888;4.724;2023-03-01T05:47:19;22.73;;;9.10;;
25301;SDS011;13243;50.888;4.724;2023-03-01T05:52:22;19.10;;;9.50;;
25301;SDS011;13243;50.888;4.724;2023-03-01T05:57:24;25.10;;;10.07;;
25301;SDS011;13243;50.888;4.724;2023-03-01T06:02:26;18.15;;;9.70;;
25301;SDS011;13243;50.888;4.724;2023-03-01T06:07:28;18.63;;;9.85;;
25301;SDS011;13243;50.888;4.724;2023-03-01T06:12:31;24.02;;;10.48;;
25301;SDS011;13243;50.888;4.724;2023-03-01T06:17:38;20.23;;;10.20;;
25301;SDS011;13243;50.888;4.724;2023-03-01T06:22:42;19.13;;;9.15;;
25301;SDS011;13243;50.888;4.724;2023-03-01T06:27:44;19.30;;;9.63;;
25301;SDS011;13243;50.888;4.724;2023-03-01T06:32:47;18.88;;;10.25;;
25301;SDS011;13243;50.888;4.724;2023-03-01T06:37:49;18.77;;;10.20;;
25301;SDS011;13243;50.888;4.724;2023-03-01T06:42:51;21.75;;;10.45;;
25301;SDS011;13243;50.888;4.724;2023-03-01T06:48:00;32.65;;;11.70;;
25301;SDS011;13243;50.888;4.724;2023-03-01T06:53:04;25.13;;;10.70;;
25301;SDS011;13243;50.888;4.724;2023-03-01T06:58:06;23.08;;;9.95;;
25301;SDS011;13243;50.888;4.724;2023-03-01T07:03:08;22.30;;;11.52;;
25301;SDS011;13243;50.888;4.724;2023-03-01T07:08:10;23.38;;;9.80;;
25301;SDS011;13243;50.888;4.724;2023-03-01T07:13:12;21.67;;;9.55;;
25301;SDS011;13243;50.888;4.724;2023-03-01T07:18:14;25.60;;;10.73;;
25301;SDS011;13243;50.888;4.724;2023-03-01T07:23:15;24.58;;;10.40;;
25301;SDS011;13243;50.888;4.724;2023-03-01T07:28:17;19.75;;;9.20;;
25301;SDS011;13243;50.888;4.724;2023-03-01T07:33:19;23.10;;;9.93;;
25301;SDS011;13243;50.888;4.724;2023-03-01T07:38:22;19.27;;;9.90;;
25301;SDS011;13243;50.888;4.724;2023-03-01T07:43:24;17.42;;;9.88;;
25301;SDS011;13243;50.888;4.724;2023-03-01T07:48:26;19.02;;;8.82;;
25301;SDS011;13243;50.888;4.724;2023-03-01T07:53:28;23.80;;;9.73;;
25301;SDS011;13243;50.888;4.724;2023-03-01T07:58:35;16.27;;;9.20;;
25301;SDS011;13243;50.888;4.724;2023-03-01T08:03:38;18.27;;;9.05;;
25301;SDS011;13243;50.888;4.724;2023-03-01T08:08:40;22.92;;;9.38;;
25301;SDS011;13243;50.888;4.724;2023-03-01T08:13:42;18.48;;;10.02;;
25301;SDS011;13243;50.888;4.724;2023-03-01T08:18:44;17.27;;;9.93;;
25301;SDS011;13243;50.888;4.724;2023-03-01T08:23:46;15.75;;;9.25;;
25301;SDS011;13243;50.888;4.724;2023-03-01T08:28:48;17.70;;;9.68;;
25301;SDS011;13243;50.888;4.724;2023-03-01T08:33:52;20.30;;;9.65;;
25301;SDS011;13243;50.888;4.724;2023-03-01T08:38:56;20.17;;;9.77;;
25301;SDS011;13243;50.888;4.724;2023-03-01T08:43:59;20.58;;;9.85;;
25301;SDS011;13243;50.888;4.724;2023-03-01T08:49:03;19.33;;;9.75;;
25301;SDS011;13243;50.888;4.724;2023-03-01T08:54:12;21.60;;;10.23;;
25301;SDS011;13243;50.888;4.724;2023-03-01T08:59:16;18.65;;;9.25;;
25301;SDS011;13243;50.888;4.724;2023-03-01T09:04:19;17.55;;;9.75;;
25301;SDS011;13243;50.888;4.724;2023-03-01T09:09:20;20.23;;;10.05;;
25301;SDS011;13243;50.888;4.724;2023-03-01T09:14:22;22.45;;;10.32;;
25301;SDS011;13243;50.888;4.724;2023-03-01T09:19:24;20.55;;;10.05;;
25301;SDS011;13243;50.888;4.724;2023-03-01T09:24:27;16.33;;;8.80;;
25301;SDS011;13243;50.888;4.724;2023-03-01T09:29:29;19.70;;;11.38;;
25301;SDS011;13243;50.888;4.724;2023-03-01T09:34:31;18.05;;;9.80;;
25301;SDS011;13243;50.888;4.724;2023-03-01T09:39:53;21.15;;;10.32;;
25301;SDS011;13243;50.888;4.724;2023-03-01T09:44:56;20.58;;;10.77;;
25301;SDS011;13243;50.888;4.724;2023-03-01T09:50:16;18.15;;;9.95;;
25301;SDS011;13243;50.888;4.724;2023-03-01T09:55:25;16.73;;;9.77;;
25301;SDS011;13243;50.888;4.724;2023-03-01T10:00:39;16.45;;;9.00;;
25301;SDS011;13243;50.888;4.724;2023-03-01T10:11:05;14.70;;;8.02;;
25301;SDS011;13243;50.888;4.724;2023-03-01T10:16:41;17.23;;;10.02;;
25301;SDS011;13243;50.888;4.724;2023-03-01T10:21:51;17.45;;;9.68;;
25301;SDS011;13243;50.888;4.724;2023-03-01T10:26:55;17.52;;;9.77;;
25301;SDS011;13243;50.888;4.724;2023-03-01T10:32:05;17.02;;;9.27;;
25301;SDS011;13243;50.888;4.724;2023-03-01T10:37:09;16.80;;;10.23;;
25301;SDS011;13243;50.888;4.724;2023-03-01T10:42:22;20.95;;;10.02;;
25301;SDS011;13243;50.888;4.724;2023-03-01T10:47:29;18.20;;;8.90;;
25301;SDS011;13243;50.888;4.724;2023-03-01T10:52:37;14.35;;;9.02;;
25301;SDS011;13243;50.888;4.724;2023-03-01T11:02:46;19.40;;;9.38;;
25301;SDS011;13243;50.888;4.724;2023-03-01T11:18:21;18.73;;;9.45;;
25301;SDS011;13243;50.888;4.724;2023-03-01T11:23:40;17.15;;;9.32;;
25301;SDS011;13243;50.888;4.724;2023-03-01T11:28:53;17.13;;;9.40;;
25301;SDS011;13243;50.888;4.724;2023-03-01T11:34:07;18.15;;;9.43;;
25301;SDS011;13243;50.888;4.724;2023-03-01T11:39:25;15.23;;;8.48;;
25301;SDS011;13243;50.888;4.724;2023-03-01T11:44:41;22.15;;;9.68;;
25301;SDS011;13243;50.888;4.724;2023-03-01T11:55:29;15.95;;;8.88;;
25301;SDS011;13243;50.888;4.724;2023-03-01T12:00:51;14.60;;;8.52;;
25301;SDS011;13243;50.888;4.724;2023-03-01T12:21:56;16.35;;;8.70;;
25301;SDS011;13243;50.888;4.724;2023-03-01T12:27:20;15.10;;;8.35;;
25301;SDS011;13243;50.888;4.724;2023-03-01T12:32:50;13.88;;;8.27;;
25301;SDS011;13243;50.888;4.724;2023-03-01T12:43:15;13.77;;;8.32;;
25301;SDS011;13243;50.888;4.724;2023-03-01T13:09:15;15.50;;;8.43;;
25301;SDS011;13243;50.888;4.724;2023-03-01T13:14:43;15.18;;;8.73;;
25301;SDS011;13243;50.888;4.724;2023-03-01T13:19:55;17.15;;;9.07;;
25301;SDS011;13243;50.888;4.724;2023-03-01T13:25:18;16.67;;;8.77;;
25301;SDS011;13243;50.888;4.724;2023-03-01T13:35:41;15.00;;;7.70;;
25301;SDS011;13243;50.888;4.724;2023-03-01T13:45:52;15.70;;;7.93;;
25301;SDS011;13243;50.888;4.724;2023-03-01T13:50:59;15.10;;;7.78;;
25301;SDS011;13243;50.888;4.724;2023-03-01T13:56:15;16.80;;;8.65;;
25301;SDS011;13243;50.888;4.724;2023-03-01T14:01:22;15.63;;;8.38;;
25301;SDS011;13243;50.888;4.724;2023-03-01T14:06:35;14.27;;;8.38;;
25301;SDS011;13243;50.888;4.724;2023-03-01T14:11:44;17.25;;;8.15;;
25301;SDS011;13243;50.888;4.724;2023-03-01T14:22:25;14.32;;;7.13;;
25301;SDS011;13243;50.888;4.724;2023-03-01T14:27:34;23.67;;;6.82;;
25301;SDS011;13243;50.888;4.724;2023-03-01T14:32:40;11.73;;;7.35;;
25301;SDS011;13243;50.888;4.724;2023-03-01T14:37:42;15.05;;;7.80;;
25301;SDS011;13243;50.888;4.724;2023-03-01T14:42:44;11.65;;;6.93;;
25301;SDS011;13243;50.888;4.724;2023-03-01T14:47:46;12.25;;;7.25;;
25301;SDS011;13243;50.888;4.724;2023-03-01T14:52:49;12.95;;;6.82;;
25301;SDS011;13243;50.888;4.724;2023-03-01T14:57:53;12.77;;;7.20;;
25301;SDS011;13243;50.888;4.724;2023-03-01T15:02:56;11.32;;;6.70;;
25301;SDS011;13243;50.888;4.724;2023-03-01T15:08:02;12.70;;;6.70;;
25301;SDS011;13243;50.888;4.724;2023-03-01T15:13:21;11.15;;;6.88;;
25301;SDS011;13243;50.888;4.724;2023-03-01T15:18:26;9.80;;;6.55;;
25301;SDS011;13243;50.888;4.724;2023-03-01T15:23:29;12.48;;;6.03;;
25301;SDS011;13243;50.888;4.724;2023-03-01T15:28:33;12.00;;;6.22;;
25301;SDS011;13243;50.888;4.724;2023-03-01T15:33:38;26.30;;;6.90;;
25301;SDS011;13243;50.888;4.724;2023-03-01T15:38:52;11.73;;;6.78;;
25301;SDS011;13243;50.888;4.724;2023-03-01T15:43:55;12.18;;;6.15;;
25301;SDS011;13243;50.888;4.724;2023-03-01T15:48:59;10.95;;;6.35;;
25301;SDS011;13243;50.888;4.724;2023-03-01T15:54:13;16.65;;;7.30;;
25301;SDS011;13243;50.888;4.724;2023-03-01T15:59:19;13.40;;;6.82;;
25301;SDS011;13243;50.888;4.724;2023-03-01T16:04:23;10.82;;;5.60;;
25301;SDS011;13243;50.888;4.724;2023-03-01T16:09:25;10.48;;;5.93;;
25301;SDS011;13243;50.888;4.724;2023-03-01T16:14:27;20.92;;;7.13;;
25301;SDS011;13243;50.888;4.724;2023-03-01T16:19:29;11.27;;;6.25;;
25301;SDS011;13243;50.888;4.724;2023-03-01T16:24:31;14.23;;;6.38;;
25301;SDS011;13243;50.888;4.724;2023-03-01T16:29:33;9.40;;;5.97;;
25301;SDS011;13243;50.888;4.724;2023-03-01T16:34:35;9.48;;;6.00;;
25301;SDS011;13243;50.888;4.724;2023-03-01T16:39:37;11.82;;;6.22;;
25301;SDS011;13243;50.888;4.724;2023-03-01T16:44:39;9.90;;;6.43;;
25301;SDS011;13243;50.888;4.724;2023-03-01T16:49:41;11.45;;;6.40;;
25301;SDS011;13243;50.888;4.724;2023-03-01T16:54:43;11.50;;;6.90;;
25301;SDS011;13243;50.888;4.724;2023-03-01T16:59:45;9.55;;;5.65;;
25301;SDS011;13243;50.888;4.724;2023-03-01T17:04:53;13.70;;;6.03;;
25301;SDS011;13243;50.888;4.724;2023-03-01T17:09:56;14.40;;;7.35;;
25301;SDS011;13243;50.888;4.724;2023-03-01T17:14:58;11.10;;;6.40;;
25301;SDS011;13243;50.888;4.724;2023-03-01T17:20:00;10.10;;;6.30;;
25301;SDS011;13243;50.888;4.724;2023-03-01T17:25:06;12.23;;;6.45;;
25301;SDS011;13243;50.888;4.724;2023-03-01T17:30:11;13.95;;;7.22;;
25301;SDS011;13243;50.888;4.724;2023-03-01T17:35:14;13.10;;;6.72;;
25301;SDS011;13243;50.888;4.724;2023-03-01T17:40:16;12.68;;;7.15;;
25301;SDS011;13243;50.888;4.724;2023-03-01T17:45:18;15.00;;;6.53;;
25301;SDS011;13243;50.888;4.724;2023-03-01T17:50:20;10.73;;;6.25;;
25301;SDS011;13243;50.888;4.724;2023-03-01T17:55:22;13.85;;;7.55;;
25301;SDS011;13243;50.888;4.724;2023-03-01T18:00:24;12.32;;;6.70;;
25301;SDS011;13243;50.888;4.724;2023-03-01T18:05:26;13.88;;;6.45;;
25301;SDS011;13243;50.888;4.724;2023-03-01T18:10:32;13.80;;;6.68;;
25301;SDS011;13243;50.888;4.724;2023-03-01T18:15:36;16.20;;;7.68;;
25301;SDS011;13243;50.888;4.724;2023-03-01T18:20:38;11.48;;;7.03;;
25301;SDS011;13243;50.888;4.724;2023-03-01T18:25:40;11.20;;;6.65;;
25301;SDS011;13243;50.888;4.724;2023-03-01T18:30:42;21.85;;;8.13;;
25301;SDS011;13243;50.888;4.724;2023-03-01T18:35:43;14.32;;;8.05;;
25301;SDS011;13243;50.888;4.724;2023-03-01T18:40:45;16.55;;;8.52;;
25301;SDS011;13243;50.888;4.724;2023-03-01T18:45:47;15.55;;;9.00;;
25301;SDS011;13243;50.888;4.724;2023-03-01T18:50:50;19.13;;;8.18;;
25301;SDS011;13243;50.888;4.724;2023-03-01T18:55:52;17.50;;;8.85;;
25301;SDS011;13243;50.888;4.724;2023-03-01T19:01:00;18.42;;;8.68;;
25301;SDS011;13243;50.888;4.724;2023-03-01T19:06:04;19.20;;;8.43;;
25301;SDS011;13243;50.888;4.724;2023-03-01T19:11:06;18.50;;;8.80;;
25301;SDS011;13243;50.888;4.724;2023-03-01T19:16:10;15.18;;;7.63;;
25301;SDS011;13243;50.888;4.724;2023-03-01T19:21:16;15.48;;;8.30;;
25301;SDS011;13243;50.888;4.724;2023-03-01T19:26:20;16.40;;;8.52;;
25301;SDS011;13243;50.888;4.724;2023-03-01T19:31:25;18.90;;;8.98;;
25301;SDS011;13243;50.888;4.724;2023-03-01T19:36:29;14.63;;;8.23;;
25301;SDS011;13243;50.888;4.724;2023-03-01T19:41:35;20.23;;;8.40;;
25301;SDS011;13243;50.888;4.724;2023-03-01T19:46:37;18.42;;;8.68;;
25301;SDS011;13243;50.888;4.724;2023-03-01T19:51:39;22.55;;;9.52;;
25301;SDS011;13243;50.888;4.724;2023-03-01T19:56:40;18.75;;;8.48;;
25301;SDS011;13243;50.888;4.724;2023-03-01T20:01:42;17.35;;;9.25;;
25301;SDS011;13243;50.888;4.724;2023-03-01T20:06:45;21.65;;;9.48;;
25301;SDS011;13243;50.888;4.724;2023-03-01T20:11:48;22.15;;;9.35;;
25301;SDS011;13243;50.888;4.724;2023-03-01T20:16:51;19.67;;;10.52;;
25301;SDS011;13243;50.888;4.724;2023-03-01T20:21:53;24.20;;;10.73;;
25301;SDS011;13243;50.888;4.724;2023-03-01T20:26:54;22.00;;;10.07;;
25301;SDS011;13243;50.888;4.724;2023-03-01T20:31:56;22.58;;;10.85;;
25301;SDS011;13243;50.888;4.724;2023-03-01T20:36:59;22.42;;;11.15;;
25301;SDS011;13243;50.888;4.724;2023-03-01T20:42:01;20.67;;;10.18;;
25301;SDS011;13243;50.888;4.724;2023-03-01T20:47:02;21.13;;;10.02;;
25301;SDS011;13243;50.888;4.724;2023-03-01T20:52:04;21.52;;;10.30;;
25301;SDS011;13243;50.888;4.724;2023-03-01T20:57:07;19.90;;;9.55;;
25301;SDS011;13243;50.888;4.724;2023-03-01T21:02:09;19.80;;;9.35;;
25301;SDS011;13243;50.888;4.724;2023-03-01T21:07:11;20.88;;;9.35;;
25301;SDS011;13243;50.888;4.724;2023-03-01T21:12:13;22.92;;;10.60;;
25301;SDS011;13243;50.888;4.724;2023-03-01T21:17:15;17.08;;;9.07;;
25301;SDS011;13243;50.888;4.724;2023-03-01T21:22:17;22.67;;;9.77;;
25301;SDS011;13243;50.888;4.724;2023-03-01T21:27:19;20.42;;;9.75;;
25301;SDS011;13243;50.888;4.724;2023-03-01T21:32:21;21.58;;;10.23;;
25301;SDS011;13243;50.888;4.724;2023-03-01T21:37:23;21.20;;;10.13;;
25301;SDS011;13243;50.888;4.724;2023-03-01T21:42:28;25.52;;;11.15;;
25301;SDS011;13243;50.888;4.724;2023-03-01T21:47:32;20.83;;;10.43;;
25301;SDS011;13243;50.888;4.724;2023-03-01T21:52:33;23.08;;;10.82;;
25301;SDS011;13243;50.888;4.724;2023-03-01T21:57:35;23.30;;;10.73;;
25301;SDS011;13243;50.888;4.724;2023-03-01T22:02:43;20.50;;;10.73;;
25301;SDS011;13243;50.888;4.724;2023-03-01T22:07:45;23.83;;;10.57;;
25301;SDS011;13243;50.888;4.724;2023-03-01T22:12:47;19.75;;;10.55;;
25301;SDS011;13243;50.888;4.724;2023-03-01T22:17:49;24.55;;;10.70;;
25301;SDS011;13243;50.888;4.724;2023-03-01T22:22:51;22.45;;;10.38;;
25301;SDS011;13243;50.888;4.724;2023-03-01T22:27:53;22.15;;;10.27;;
25301;SDS011;13243;50.888;4.724;2023-03-01T22:32:55;23.45;;;10.45;;
25301;SDS011;13243;50.888;4.724;2023-03-01T22:37:57;22.27;;;10.73;;
25301;SDS011;13243;50.888;4.724;2023-03-01T22:42:59;21.65;;;10.68;;
25301;SDS011;13243;50.888;4.724;2023-03-01T22:48:01;30.73;;;10.68;;
25301;SDS011;13243;50.888;4.724;2023-03-01T22:53:05;20.42;;;10.70;;
25301;SDS011;13243;50.888;4.724;2023-03-01T22:58:06;21.90;;;10.75;;
25301;SDS011;13243;50.888;4.724;2023-03-01T23:03:08;24.95;;;10.15;;
25301;SDS011;13243;50.888;4.724;2023-03-01T23:08:11;23.63;;;10.35;;
25301;SDS011;13243;50.888;4.724;2023-03-01T23:13:13;24.70;;;12.25;;
25301;SDS011;13243;50.888;4.724;2023-03-01T23:18:15;24.77;;;11.60;;
25301;SDS011;13243;50.888;4.724;2023-03-01T23:23:17;26.90;;;12.38;;
25301;SDS011;13243;50.888;4.724;2023-03-01T23:28:18;22.42;;;11.30;;
25301;SDS011;13243;50.888;4.724;2023-03-01T23:33:20;26.95;;;10.88;;
25301;SDS011;13243;50.888;4.724;2023-03-01T23:38:22;25.17;;;11.43;;
25301;SDS011;13243;50.888;4.724;2023-03-01T23:43:24;25.63;;;11.55;;
25301;SDS011;13243;50.888;4.724;2023-03-01T23:48:26;26.08;;;11.20;;
25301;SDS011;13243;50.888;4.724;2023-03-01T23:53:28;23.23;;;10.57;;
25301;SDS011;13243;50.888;4.724;2023-03-01T23:58:30;26.67;;;12.25;;
